createdAt,value
2022-10-30T00:01:05.407Z,98238.91
2022-10-30T00:03:33.721Z,98234.66
2022-10-30T00:06:05.478Z,98236.56
2022-10-30T00:08:33.813Z,98239.22
2022-10-30T00:11:08.878Z,98240.81
2022-10-30T00:13:37.266Z,98237.34
2022-10-30T00:16:07.588Z,98241.63
2022-10-30T00:18:37.006Z,98239.91
2022-10-30T00:21:09.450Z,98230.66
2022-10-30T00:23:37.728Z,98231.59
2022-10-30T00:26:08.386Z,98238.47
2022-10-30T00:28:36.814Z,98227.16
2022-10-30T00:31:06.267Z,98221.91
2022-10-30T00:33:36.512Z,98225.31
2022-10-30T00:36:06.516Z,98221.06
2022-10-30T00:38:35.969Z,98220.19
2022-10-30T00:41:04.326Z,98209.88
2022-10-30T00:43:37.062Z,98215.03
2022-10-30T00:46:09.974Z,98215.84
2022-10-30T00:48:38.361Z,98216.66
2022-10-30T00:51:09.892Z,98222.66
2022-10-30T00:53:40.852Z,98215.69
2022-10-30T00:56:09.909Z,98219.19
2022-10-30T00:58:42.118Z,98213.16
2022-10-30T01:01:15.262Z,98206.22
2022-10-30T01:03:43.617Z,98205.38
2022-10-30T01:06:13.470Z,98206.22
2022-10-30T01:08:42.376Z,98205.34
2022-10-30T01:11:10.807Z,98206.19
2022-10-30T01:13:42.774Z,98206.22
2022-10-30T01:16:34.500Z,98199.31
2022-10-30T01:19:11.973Z,98207.84
2022-10-30T01:21:50.862Z,98198.34
2022-10-30T01:24:37.410Z,98190.56
2022-10-30T01:27:15.549Z,98193.13
2022-10-30T01:29:54.571Z,98190.53
2022-10-30T01:32:37.629Z,98193.09
2022-10-30T01:35:10.530Z,98187.06
2022-10-30T01:37:45.904Z,98187.91
2022-10-30T01:40:16.741Z,98187.88
2022-10-30T01:42:49.140Z,98186.97
2022-10-30T01:45:29.748Z,98183.44
2022-10-30T01:48:16.256Z,98179.94
2022-10-30T01:50:57.267Z,98181.63
2022-10-30T01:53:36.844Z,98173.84
2022-10-30T01:56:17.014Z,98179.88
2022-10-30T01:58:52.863Z,98172.94
2022-10-30T02:01:24.289Z,98169.47
2022-10-30T02:03:52.877Z,98176.34
2022-10-30T02:06:21.912Z,98173.72
2022-10-30T02:08:50.356Z,98175.34
2022-10-30T02:11:18.957Z,98176.22
2022-10-30T02:13:47.261Z,98172.75
2022-10-30T02:16:15.536Z,98172.69
2022-10-30T02:21:20.627Z,98176.88
2022-10-30T02:23:48.909Z,98165.63
2022-10-30T02:26:17.175Z,98164.69
2022-10-30T02:28:45.485Z,98163.72
2022-10-30T02:31:13.840Z,98163.72
2022-10-30T02:33:45.855Z,98162.91
2022-10-30T02:36:15.664Z,98157.75
2022-10-30T02:38:45.683Z,98155.09
2022-10-30T02:41:14.277Z,98161.03
2022-10-30T02:43:43.155Z,98161.13
2022-10-30T02:46:11.442Z,98162.84
2022-10-30T02:48:39.759Z,98157.72
2022-10-30T02:51:08.077Z,98164.63
2022-10-30T02:53:36.372Z,98155.97
2022-10-30T02:56:07.852Z,98148.16
2022-10-30T02:58:36.319Z,98156.63
2022-10-30T03:01:09.833Z,98153.13
2022-10-30T03:03:38.272Z,98153.94
2022-10-30T03:06:08.117Z,98154.72
2022-10-30T03:08:36.904Z,98151.25
2022-10-30T03:11:10.617Z,98157.28
2022-10-30T03:13:40.940Z,98158.16
2022-10-30T03:16:12.868Z,98155.56
2022-10-30T03:18:41.725Z,98162.38
2022-10-30T03:21:13.283Z,98161.50
2022-10-30T03:23:41.553Z,98159.06
2022-10-30T03:26:11.508Z,98159.97
2022-10-30T03:28:55.454Z,98165.13
2022-10-30T03:31:23.895Z,98154.78
2022-10-30T03:34:08.899Z,98158.09
2022-10-30T03:36:37.166Z,98169.19
2022-10-30T03:39:05.452Z,98155.41
2022-10-30T03:41:35.974Z,98165.81
2022-10-30T03:44:04.283Z,98156.28
2022-10-30T03:46:32.656Z,98158.88
2022-10-30T03:49:15.367Z,98157.19
2022-10-30T03:51:44.054Z,98155.44
2022-10-30T03:54:12.309Z,98146.84
2022-10-30T03:56:42.074Z,98149.50
2022-10-30T03:59:14.451Z,98152.28
2022-10-30T04:01:45.756Z,98146.22
2022-10-30T04:04:14.217Z,98149.63
2022-10-30T04:06:42.578Z,98148.72
2022-10-30T04:09:10.924Z,98142.66
2022-10-30T04:11:45.381Z,98142.59
2022-10-30T04:14:13.710Z,98140.75
2022-10-30T04:16:42.099Z,98142.31
2022-10-30T04:19:10.465Z,98137.09
2022-10-30T04:21:38.938Z,98141.31
2022-10-30T04:24:07.613Z,98141.16
2022-10-30T04:26:37.379Z,98143.66
2022-10-30T04:29:07.172Z,98138.47
2022-10-30T04:31:35.487Z,98141.00
2022-10-30T04:34:03.809Z,98136.69
2022-10-30T04:36:34.081Z,98137.44
2022-10-30T04:39:02.652Z,98140.88
2022-10-30T04:41:31.502Z,98137.41
2022-10-30T04:44:06.429Z,98139.97
2022-10-30T04:46:34.720Z,98134.75
2022-10-30T04:49:10.640Z,98132.25
2022-10-30T04:51:38.962Z,98133.88
2022-10-30T04:54:08.965Z,98130.44
2022-10-30T04:56:38.948Z,98133.00
2022-10-30T04:59:08.813Z,98141.72
2022-10-30T05:01:37.404Z,98134.00
2022-10-30T05:04:06.425Z,98119.28
2022-10-30T05:06:35.641Z,98127.78
2022-10-30T05:09:04.583Z,98132.88
2022-10-30T05:11:36.144Z,98125.88
2022-10-30T05:14:04.546Z,98136.97
2022-10-30T05:16:34.306Z,98130.94
2022-10-30T05:19:04.882Z,98134.34
2022-10-30T05:21:34.959Z,98138.69
2022-10-30T05:24:03.360Z,98136.06
2022-10-30T05:26:39.738Z,98135.97
2022-10-30T05:29:08.020Z,98135.13
2022-10-30T05:31:38.255Z,98129.94
2022-10-30T05:34:26.433Z,98140.22
2022-10-30T05:36:55.297Z,98134.16
2022-10-30T05:39:23.794Z,98135.03
2022-10-30T05:41:53.006Z,98140.22
2022-10-30T05:44:34.654Z,98135.06
2022-10-30T05:47:13.695Z,98144.47
2022-10-30T05:49:46.571Z,98147.88
2022-10-30T05:52:18.927Z,98144.47
2022-10-30T05:54:47.484Z,98147.91
2022-10-30T05:57:21.098Z,98142.78
2022-10-30T05:59:49.743Z,98143.75
2022-10-30T06:02:19.543Z,98141.22
2022-10-30T06:04:48.658Z,98148.22
2022-10-30T06:07:17.355Z,98144.94
2022-10-30T06:09:45.665Z,98137.44
2022-10-30T06:12:43.199Z,98151.22
2022-10-30T06:15:21.004Z,98152.25
2022-10-30T06:17:50.973Z,98160.16
2022-10-30T06:20:26.927Z,98157.16
2022-10-30T06:23:13.786Z,98154.63
2022-10-30T06:25:49.898Z,98158.00
2022-10-30T06:28:31.935Z,98156.25
2022-10-30T06:31:00.327Z,98158.88
2022-10-30T06:33:30.383Z,98159.72
2022-10-30T06:35:58.815Z,98162.34
2022-10-30T06:38:27.105Z,98162.28
2022-10-30T06:40:56.423Z,98161.44
2022-10-30T06:43:36.958Z,98158.91
2022-10-30T06:46:33.690Z,98163.28
2022-10-30T06:49:03.778Z,98165.94
2022-10-30T06:51:33.562Z,98160.03
2022-10-30T06:54:02.366Z,98167.06
2022-10-30T06:56:42.378Z,98166.25
2022-10-30T06:59:19.527Z,98171.63
2022-10-30T07:02:11.259Z,98168.31
2022-10-30T07:04:57.883Z,98174.44
2022-10-30T07:07:26.542Z,98170.16
2022-10-30T07:09:55.230Z,98168.56
2022-10-30T07:12:32.503Z,98175.50
2022-10-30T07:15:20.970Z,98173.91
2022-10-30T07:18:03.539Z,98177.56
2022-10-30T07:20:36.271Z,98181.84
2022-10-30T07:23:05.290Z,98186.22
2022-10-30T07:25:34.045Z,98194.91
2022-10-30T07:28:20.637Z,98188.06
2022-10-30T07:31:11.884Z,98181.34
2022-10-30T07:34:09.633Z,98196.97
2022-10-30T07:37:02.262Z,98195.41
2022-10-30T07:39:44.000Z,98188.75
2022-10-30T07:42:33.633Z,98196.75
2022-10-30T07:45:22.238Z,98196.00
2022-10-30T07:48:09.226Z,98192.63
2022-10-30T07:51:00.914Z,98190.97
2022-10-30T07:53:31.119Z,98178.94
2022-10-30T07:55:59.578Z,98177.25
2022-10-30T07:58:51.073Z,98174.66
2022-10-30T08:01:55.263Z,98160.78
2022-10-30T08:04:33.703Z,98157.28
2022-10-30T08:07:11.888Z,98149.41
2022-10-30T08:09:42.006Z,98142.44
2022-10-30T08:12:10.293Z,98143.25
2022-10-30T08:14:38.548Z,98130.13
2022-10-30T08:17:07.763Z,98131.72
2022-10-30T08:19:36.137Z,98121.94
2022-10-30T08:22:05.221Z,98126.00
2022-10-30T08:24:37.071Z,98112.88
2022-10-30T08:27:06.851Z,98121.50
2022-10-30T08:29:35.895Z,98114.69
2022-10-30T08:32:04.521Z,98118.66
2022-10-30T08:34:51.087Z,98121.00
2022-10-30T08:37:20.869Z,98116.81
2022-10-30T08:39:49.207Z,98113.78
2022-10-30T08:42:36.231Z,98103.75
2022-10-30T08:45:10.170Z,98109.94
2022-10-30T08:48:03.461Z,98106.19
2022-10-30T08:50:36.175Z,98109.81
2022-10-30T08:53:05.818Z,98105.63
2022-10-30T08:55:36.579Z,98100.88
2022-10-30T08:58:09.990Z,98097.63
2022-10-30T09:00:39.038Z,98096.66
2022-10-30T09:03:12.965Z,98093.41
2022-10-30T09:05:43.979Z,98096.97
2022-10-30T09:08:18.035Z,98088.63
2022-10-30T09:10:56.326Z,98089.72
2022-10-30T09:13:26.400Z,98087.28
2022-10-30T09:15:55.792Z,98082.31
2022-10-30T09:18:24.113Z,98087.84
2022-10-30T09:20:52.447Z,98089.03
2022-10-30T09:23:20.816Z,98091.41
2022-10-30T09:25:54.108Z,98092.56
2022-10-30T09:28:59.108Z,98095.66
2022-10-30T09:31:45.332Z,98091.22
2022-10-30T09:34:18.518Z,98087.34
2022-10-30T09:36:51.985Z,98092.06
2022-10-30T09:39:20.786Z,98096.09
2022-10-30T09:42:11.780Z,98086.50
2022-10-30T09:45:08.074Z,98089.84
2022-10-30T09:47:46.381Z,98082.97
2022-10-30T09:50:26.684Z,98084.63
2022-10-30T09:53:05.210Z,98092.28
2022-10-30T09:55:41.372Z,98087.22
2022-10-30T09:58:19.941Z,98084.84
2022-10-30T10:00:55.231Z,98075.69
2022-10-30T10:03:42.686Z,98074.28
2022-10-30T10:06:46.220Z,98071.38
2022-10-30T10:09:29.851Z,98070.59
2022-10-30T10:12:16.432Z,98072.88
2022-10-30T10:14:46.957Z,98075.59
2022-10-30T10:17:27.204Z,98073.81
2022-10-30T10:19:59.371Z,98070.50
2022-10-30T10:22:30.363Z,98068.72
2022-10-30T10:24:58.660Z,98059.56
2022-10-30T10:27:36.439Z,98058.66
2022-10-30T10:30:07.020Z,98059.56
2022-10-30T10:33:01.321Z,98050.28
2022-10-30T10:35:57.731Z,98055.50
2022-10-30T10:38:42.837Z,98050.09
2022-10-30T10:41:18.889Z,98047.31
2022-10-30T10:44:02.824Z,98042.47
2022-10-30T10:46:47.639Z,98040.94
2022-10-30T10:49:27.523Z,98034.56
2022-10-30T10:51:59.104Z,98028.25
2022-10-30T10:54:30.595Z,98026.81
2022-10-30T10:56:59.777Z,98029.66
2022-10-30T10:59:33.439Z,98029.53
2022-10-30T11:02:16.774Z,98018.78
2022-10-30T11:04:48.833Z,98032.78
2022-10-30T11:07:20.764Z,98026.25
2022-10-30T11:09:52.645Z,98017.59
2022-10-30T11:12:22.149Z,98018.59
2022-10-30T11:14:50.493Z,98019.56
2022-10-30T11:17:25.891Z,98019.31
2022-10-30T11:19:59.863Z,98017.75
2022-10-30T11:22:31.061Z,98018.41
2022-10-30T11:25:25.338Z,98015.81
2022-10-30T11:27:57.912Z,98015.50
2022-10-30T11:30:28.796Z,98017.84
2022-10-30T11:32:57.756Z,98017.38
2022-10-30T11:35:27.720Z,98010.03
2022-10-30T11:38:14.335Z,98008.16
2022-10-30T11:40:48.199Z,97999.03
2022-10-30T11:43:21.809Z,98002.63
2022-10-30T11:45:50.458Z,98008.50
2022-10-30T11:48:23.336Z,98002.50
2022-10-30T11:50:56.951Z,98005.56
2022-10-30T11:53:30.777Z,97997.16
2022-10-30T11:56:00.299Z,97988.97
2022-10-30T11:58:31.558Z,97989.00
2022-10-30T12:01:02.008Z,97984.53
2022-10-30T12:03:35.169Z,97990.88
2022-10-30T12:06:15.039Z,97978.84
2022-10-30T12:08:43.314Z,97982.31
2022-10-30T12:11:11.563Z,97977.41
2022-10-30T12:13:41.358Z,97980.06
2022-10-30T12:16:20.684Z,97978.34
2022-10-30T12:19:02.036Z,97974.41
2022-10-30T12:21:38.022Z,97976.16
2022-10-30T12:24:09.568Z,97969.06
2022-10-30T12:26:39.546Z,97966.16
2022-10-30T12:29:12.796Z,97964.44
2022-10-30T12:31:44.186Z,97952.03
2022-10-30T12:34:36.273Z,97956.69
2022-10-30T12:37:11.422Z,97957.25
2022-10-30T12:39:55.308Z,97951.19
2022-10-30T12:42:25.533Z,97952.75
2022-10-30T12:45:00.851Z,97950.38
2022-10-30T12:47:34.668Z,97951.09
2022-10-30T12:52:45.818Z,97945.00
2022-10-30T12:55:19.013Z,97940.97
2022-10-30T12:57:52.221Z,97945.03
2022-10-30T13:00:20.946Z,97937.63
2022-10-30T13:02:54.318Z,97935.53
2022-10-30T13:05:29.737Z,97940.78
2022-10-30T13:08:16.382Z,97932.72
2022-10-30T13:10:46.495Z,97940.34
2022-10-30T13:13:18.186Z,97934.88
2022-10-30T13:15:48.860Z,97940.03
2022-10-30T13:18:18.820Z,97937.69
2022-10-30T13:21:00.044Z,97928.34
2022-10-30T13:23:35.116Z,97938.59
2022-10-30T13:26:10.702Z,97937.69
2022-10-30T13:28:43.897Z,97929.81
2022-10-30T13:31:18.717Z,97932.47
2022-10-30T13:33:51.336Z,97934.44
2022-10-30T13:36:24.626Z,97934.34
2022-10-30T13:39:00.344Z,97922.47
2022-10-30T13:41:36.235Z,97928.22
2022-10-30T13:44:15.471Z,97916.16
2022-10-30T13:46:56.633Z,97932.47
2022-10-30T13:49:38.151Z,97941.63
2022-10-30T13:52:10.299Z,97935.59
2022-10-30T13:54:42.336Z,97938.38
2022-10-30T13:57:18.661Z,97940.59
2022-10-30T14:00:03.593Z,97936.16
2022-10-30T14:03:05.392Z,97940.97
2022-10-30T14:05:41.010Z,97934.72
2022-10-30T14:08:15.605Z,97941.47
2022-10-30T14:10:51.508Z,97940.47
2022-10-30T14:13:36.383Z,97934.75
2022-10-30T14:16:07.026Z,97938.34
2022-10-30T14:18:45.830Z,97941.69
2022-10-30T14:21:44.902Z,97944.81
2022-10-30T14:24:15.690Z,97941.25
2022-10-30T14:26:53.087Z,97946.75
2022-10-30T14:29:48.527Z,97942.44
2022-10-30T14:32:39.862Z,97941.22
2022-10-30T14:35:33.123Z,97949.31
2022-10-30T14:38:17.461Z,97949.94
2022-10-30T14:40:54.798Z,97951.09
2022-10-30T14:43:29.133Z,97946.44
2022-10-30T14:46:01.191Z,97940.69
2022-10-30T14:48:34.315Z,97942.22
2022-10-30T14:51:09.395Z,97945.00
2022-10-30T14:53:48.966Z,97938.06
2022-10-30T14:56:29.215Z,97939.22
2022-10-30T14:59:21.757Z,97938.91
2022-10-30T15:01:57.066Z,97937.44
2022-10-30T15:04:33.135Z,97943.91
2022-10-30T15:07:07.829Z,97937.09
2022-10-30T15:09:42.781Z,97941.13
2022-10-30T15:14:59.412Z,97939.09
2022-10-30T15:17:33.755Z,97938.41
2022-10-30T15:20:05.403Z,97947.44
2022-10-30T15:22:34.575Z,97941.72
2022-10-30T15:25:03.323Z,97938.59
2022-10-30T15:27:33.175Z,97938.09
2022-10-30T15:30:05.358Z,97940.22
2022-10-30T15:32:33.936Z,97932.78
2022-10-30T15:35:04.775Z,97933.22
2022-10-30T15:37:33.696Z,97933.69
2022-10-30T15:40:12.959Z,97927.25
2022-10-30T15:42:41.720Z,97932.97
2022-10-30T15:45:18.326Z,97936.97
2022-10-30T15:47:48.416Z,97944.34
2022-10-30T15:50:17.223Z,97942.19
2022-10-30T15:52:45.637Z,97941.84
2022-10-30T15:55:16.463Z,97945.81
2022-10-30T15:58:03.892Z,97953.25
2022-10-30T16:00:36.865Z,97954.72
2022-10-30T16:03:07.211Z,97962.03
2022-10-30T16:05:36.388Z,97965.97
2022-10-30T16:08:11.920Z,97967.25
2022-10-30T16:10:41.471Z,97962.13
2022-10-30T16:13:17.693Z,97961.72
2022-10-30T16:15:48.258Z,97967.22
2022-10-30T16:18:20.011Z,97974.63
2022-10-30T16:20:50.663Z,97978.34
2022-10-30T16:23:20.260Z,97986.25
2022-10-30T16:25:49.792Z,97980.44
2022-10-30T16:28:30.231Z,97988.59
2022-10-30T16:31:03.444Z,97988.88
2022-10-30T16:33:33.974Z,97998.47
2022-10-30T16:36:04.078Z,98002.81
2022-10-30T16:38:36.991Z,97996.19
2022-10-30T16:41:07.064Z,98004.28
2022-10-30T16:43:36.653Z,98005.31
2022-10-30T16:46:40.199Z,98010.63
2022-10-30T16:49:12.882Z,98005.66
2022-10-30T16:51:41.959Z,98013.56
2022-10-30T16:54:20.838Z,98008.34
2022-10-30T16:56:50.215Z,98015.31
2022-10-30T16:59:29.312Z,98021.38
2022-10-30T17:02:06.048Z,98018.03
2022-10-30T17:04:36.421Z,98025.31
2022-10-30T17:07:19.001Z,98030.63
2022-10-30T17:09:48.856Z,98029.91
2022-10-30T17:12:23.731Z,98033.47
2022-10-30T17:14:54.806Z,98038.75
2022-10-30T17:17:43.901Z,98048.34
2022-10-30T17:20:16.600Z,98052.63
2022-10-30T17:22:47.858Z,98052.69
2022-10-30T17:25:20.235Z,98047.53
2022-10-30T17:27:50.863Z,98059.66
2022-10-30T17:30:38.307Z,98060.59
2022-10-30T17:33:36.824Z,98060.78
2022-10-30T17:36:07.213Z,98057.47
2022-10-30T17:38:36.563Z,98062.69
2022-10-30T17:41:05.592Z,98064.59
2022-10-30T17:43:36.733Z,98074.19
2022-10-30T17:46:05.553Z,98073.22
2022-10-30T17:48:37.136Z,98075.00
2022-10-30T17:51:06.345Z,98079.41
2022-10-30T17:53:35.750Z,98077.69
2022-10-30T17:56:10.099Z,98071.75
2022-10-30T17:58:38.750Z,98076.25
2022-10-30T18:01:08.567Z,98074.44
2022-10-30T18:03:39.982Z,98076.84
2022-10-30T18:06:15.741Z,98076.75
2022-10-30T18:08:47.954Z,98075.13
2022-10-30T18:11:23.652Z,98071.69
2022-10-30T18:13:53.783Z,98070.84
2022-10-30T18:16:22.780Z,98075.19
2022-10-30T18:18:57.466Z,98073.69
2022-10-30T18:21:30.977Z,98082.44
2022-10-30T18:24:00.816Z,98072.59
2022-10-30T18:26:30.784Z,98070.84
2022-10-30T18:29:00.343Z,98066.75
2022-10-30T18:31:29.583Z,98064.56
2022-10-30T18:34:00.419Z,98072.34
2022-10-30T18:36:32.411Z,98070.63
2022-10-30T18:39:01.614Z,98072.38
2022-10-30T18:41:34.752Z,98075.84
2022-10-30T18:44:05.978Z,98074.16
2022-10-30T18:46:36.340Z,98074.16
2022-10-30T18:49:07.542Z,98071.59
2022-10-30T18:51:38.347Z,98072.50
2022-10-30T18:54:14.302Z,98072.47
2022-10-30T18:56:44.511Z,98068.13
2022-10-30T18:59:14.894Z,98075.06
2022-10-30T19:01:45.352Z,98079.38
2022-10-30T19:04:21.840Z,98075.94
2022-10-30T19:06:52.373Z,98074.19
2022-10-30T19:09:21.455Z,98082.03
2022-10-30T19:11:50.642Z,98070.81
2022-10-30T19:14:21.386Z,98073.50
2022-10-30T19:16:51.814Z,98071.78
2022-10-30T19:19:24.488Z,98080.44
2022-10-30T19:21:54.271Z,98078.72
2022-10-30T19:24:23.574Z,98070.06
2022-10-30T19:26:52.619Z,98073.53
2022-10-30T19:29:26.168Z,98071.00
2022-10-30T19:31:56.207Z,98075.28
2022-10-30T19:34:27.320Z,98072.69
2022-10-30T19:36:57.124Z,98080.44
2022-10-30T19:39:27.234Z,98075.31
2022-10-30T19:41:56.738Z,98070.97
2022-10-30T19:44:26.514Z,98077.88
2022-10-30T19:46:56.912Z,98071.84
2022-10-30T19:49:30.199Z,98071.88
2022-10-30T19:52:01.655Z,98074.44
2022-10-30T19:54:34.183Z,98076.19
2022-10-30T19:57:03.586Z,98071.00
2022-10-30T19:59:33.549Z,98075.28
2022-10-30T20:02:05.085Z,98071.84
2022-10-30T20:04:36.838Z,98073.59
2022-10-30T20:07:06.803Z,98069.25
2022-10-30T20:09:36.356Z,98074.41
2022-10-30T20:12:07.358Z,98078.72
2022-10-30T20:14:37.318Z,98080.44
2022-10-30T20:17:06.844Z,98084.75
2022-10-30T20:19:37.716Z,98085.63
2022-10-30T20:22:06.893Z,98070.09
2022-10-30T20:24:37.743Z,98082.19
2022-10-30T20:27:06.750Z,98081.31
2022-10-30T20:29:37.125Z,98080.44
2022-10-30T20:32:10.337Z,98080.44
2022-10-30T20:34:41.036Z,98083.88
2022-10-30T20:37:10.953Z,98083.00
2022-10-30T20:39:40.124Z,98093.38
2022-10-30T20:42:11.141Z,98096.81
2022-10-30T20:44:40.358Z,98094.22
2022-10-30T20:47:12.563Z,98094.22
2022-10-30T20:49:44.974Z,98089.88
2022-10-30T20:52:13.436Z,98090.72
2022-10-30T20:54:42.371Z,98094.16
2022-10-30T20:57:12.219Z,98094.13
2022-10-30T20:59:40.756Z,98094.13
2022-10-30T21:02:14.534Z,98098.41
2022-10-30T21:04:44.703Z,98101.88
2022-10-30T21:07:13.383Z,98094.09
2022-10-30T21:09:42.087Z,98099.25
2022-10-30T21:12:11.239Z,98093.19
2022-10-30T21:14:40.023Z,98088.88
2022-10-30T21:17:08.810Z,98096.59
2022-10-30T21:19:37.747Z,98097.47
2022-10-30T21:22:07.907Z,98099.22
2022-10-30T21:24:36.815Z,98099.22
2022-10-30T21:27:06.093Z,98098.34
2022-10-30T21:29:35.331Z,98097.53
2022-10-30T21:32:04.047Z,98094.94
2022-10-30T21:34:32.700Z,98100.91
2022-10-30T21:37:01.521Z,98094.91
2022-10-30T21:39:31.343Z,98091.47
2022-10-30T21:41:59.710Z,98095.69
2022-10-30T21:44:27.983Z,98098.25
2022-10-30T21:46:56.235Z,98095.72
2022-10-30T21:49:24.632Z,98101.72
2022-10-30T21:51:53.324Z,98093.97
2022-10-30T21:54:22.025Z,98095.63
2022-10-30T21:56:51.799Z,98096.44
2022-10-30T21:59:20.099Z,98097.25
2022-10-30T22:01:48.567Z,98092.91
2022-10-30T22:04:16.948Z,98087.75
2022-10-30T22:06:45.663Z,98089.44
2022-10-30T22:09:16.588Z,98087.63
2022-10-30T22:11:45.155Z,98091.09
2022-10-30T22:14:14.909Z,98092.00
2022-10-30T22:16:43.217Z,98086.75
2022-10-30T22:19:12.246Z,98083.31
2022-10-30T22:21:40.586Z,98088.47
2022-10-30T22:24:09.637Z,98085.00
2022-10-30T22:26:37.964Z,98078.91
2022-10-30T22:29:06.244Z,98086.72
2022-10-30T22:31:37.030Z,98087.56
2022-10-30T22:34:05.267Z,98078.94
2022-10-30T22:36:34.634Z,98086.69
2022-10-30T22:39:05.295Z,98082.28
2022-10-30T22:41:37.348Z,98084.84
2022-10-30T22:44:08.042Z,98083.97
2022-10-30T22:46:38.660Z,98080.50
2022-10-30T22:49:07.350Z,98079.66
2022-10-30T22:51:37.414Z,98081.50
2022-10-30T22:54:07.870Z,98085.88
2022-10-30T22:56:37.521Z,98077.22
2022-10-30T22:59:07.599Z,98087.47
2022-10-30T23:01:38.336Z,98087.41
2022-10-30T23:04:07.732Z,98086.59
2022-10-30T23:06:36.943Z,98085.69
2022-10-30T23:09:07.994Z,98083.97
2022-10-30T23:11:36.360Z,98082.19
2022-10-30T23:14:04.811Z,98080.47
2022-10-30T23:16:33.391Z,98080.44
2022-10-30T23:19:03.138Z,98077.03
2022-10-30T23:21:32.606Z,98075.28
2022-10-30T23:24:02.831Z,98083.72
2022-10-30T23:26:32.549Z,98083.66
2022-10-30T23:29:01.714Z,98074.22
2022-10-30T23:31:32.442Z,98082.78
2022-10-30T23:34:04.201Z,98079.34
2022-10-30T23:36:32.837Z,98083.66
2022-10-30T23:39:02.803Z,98085.31
2022-10-30T23:41:32.552Z,98081.06
2022-10-30T23:44:02.142Z,98074.16
2022-10-30T23:46:30.649Z,98069.88
2022-10-30T23:48:59.200Z,98074.06
2022-10-30T23:51:28.982Z,98074.84
2022-10-30T23:53:57.347Z,98067.94
2022-10-30T23:56:26.248Z,98082.59
2022-10-30T23:58:54.632Z,98076.63
